createdAt,value
2022-11-30T00:00:31.305Z,1008.74
2022-11-30T00:01:05.976Z,1008.94
2022-11-30T00:01:39.704Z,1008.63
2022-11-30T00:02:06.265Z,1008.63
2022-11-30T00:02:35.096Z,1008.74
2022-11-30T00:02:55.148Z,1008.74
2022-11-30T00:03:26.134Z,1008.74
2022-11-30T00:03:58.691Z,1008.84
2022-11-30T00:04:30.794Z,1008.84
2022-11-30T00:05:03.784Z,1008.74
2022-11-30T00:05:44.833Z,1008.84
2022-11-30T00:06:08.689Z,1008.84
2022-11-30T00:06:34.806Z,1008.74
2022-11-30T00:06:54.035Z,1008.74
2022-11-30T00:07:26.916Z,1008.74
2022-11-30T00:07:57.998Z,1008.84
2022-11-30T00:08:30.400Z,1008.84
2022-11-30T00:09:04.593Z,1008.84
2022-11-30T00:09:33.204Z,1008.74
2022-11-30T00:09:49.836Z,1008.74
2022-11-30T00:10:27.059Z,1008.74
2022-11-30T00:10:53.950Z,1008.74
2022-11-30T00:11:25.950Z,1008.74
2022-11-30T00:11:57.918Z,1008.84
2022-11-30T00:12:33.919Z,1008.84
2022-11-30T00:13:02.917Z,1008.84
2022-11-30T00:13:34.420Z,1008.84
2022-11-30T00:13:50.178Z,1008.84
2022-11-30T00:14:21.881Z,1008.84
2022-11-30T00:14:40.925Z,1008.63
2022-11-30T00:15:10.234Z,1008.63
2022-11-30T00:15:33.532Z,1008.63
2022-11-30T00:15:59.906Z,1008.63
2022-11-30T00:16:31.253Z,1008.63
2022-11-30T00:17:03.003Z,1008.84
2022-11-30T00:17:35.341Z,1008.84
2022-11-30T00:18:06.175Z,1008.84
2022-11-30T00:18:33.685Z,1008.74
2022-11-30T00:18:53.899Z,1008.74
2022-11-30T00:19:26.301Z,1008.74
2022-11-30T00:19:59.573Z,1008.63
2022-11-30T00:20:33.880Z,1008.74
2022-11-30T00:21:03.647Z,1008.74
2022-11-30T00:21:33.974Z,1008.84
2022-11-30T00:22:07.078Z,1008.84
2022-11-30T00:22:33.303Z,1008.53
2022-11-30T00:22:54.052Z,1008.53
2022-11-30T00:23:26.307Z,1008.53
2022-11-30T00:23:59.391Z,1008.74
2022-11-30T00:24:29.952Z,1008.74
2022-11-30T00:25:03.192Z,1008.94
2022-11-30T00:25:34.772Z,1008.74
2022-11-30T00:26:05.930Z,1008.74
2022-11-30T00:26:33.756Z,1008.74
2022-11-30T00:26:59.000Z,1008.74
2022-11-30T00:27:27.320Z,1008.74
2022-11-30T00:27:58.264Z,1008.63
2022-11-30T00:28:35.147Z,1008.63
2022-11-30T00:29:01.965Z,1008.94
2022-11-30T00:29:33.359Z,1008.74
2022-11-30T00:29:51.585Z,1008.74
2022-11-30T00:30:22.101Z,1008.74
2022-11-30T00:30:40.047Z,1008.84
2022-11-30T00:31:11.263Z,1008.84
2022-11-30T00:31:33.975Z,1008.94
2022-11-30T00:32:01.751Z,1008.94
2022-11-30T00:32:29.901Z,1008.94
2022-11-30T00:33:03.523Z,1008.63
2022-11-30T00:33:33.472Z,1008.74
2022-11-30T00:33:49.791Z,1008.74
2022-11-30T00:34:22.868Z,1008.74
2022-11-30T00:34:40.041Z,1008.74
2022-11-30T00:35:10.715Z,1008.74
2022-11-30T00:35:33.216Z,1008.63
2022-11-30T00:35:58.494Z,1008.63
2022-11-30T00:36:29.929Z,1008.63
2022-11-30T00:37:02.913Z,1008.74
2022-11-30T00:37:34.118Z,1008.74
2022-11-30T00:37:49.712Z,1008.74
2022-11-30T00:38:22.709Z,1008.74
2022-11-30T00:38:39.825Z,1008.84
2022-11-30T00:39:10.319Z,1008.84
2022-11-30T00:39:35.742Z,1008.74
2022-11-30T00:39:57.862Z,1008.74
2022-11-30T00:40:30.797Z,1008.74
2022-11-30T00:41:01.952Z,1008.74
2022-11-30T00:41:34.214Z,1008.53
2022-11-30T00:42:05.894Z,1008.53
2022-11-30T00:42:33.767Z,1008.63
2022-11-30T00:42:54.080Z,1008.63
2022-11-30T00:43:36.418Z,1008.84
2022-11-30T00:44:00.430Z,1008.84
2022-11-30T00:44:30.424Z,1008.84
2022-11-30T00:45:20.827Z,1008.63
2022-11-30T00:45:37.679Z,1008.74
2022-11-30T00:46:05.966Z,1008.74
2022-11-30T00:46:33.970Z,1008.84
2022-11-30T00:46:54.098Z,1008.84
2022-11-30T00:47:26.043Z,1008.84
2022-11-30T00:47:58.603Z,1008.84
2022-11-30T00:48:29.936Z,1008.84
2022-11-30T00:49:02.646Z,1008.94
2022-11-30T00:49:33.284Z,1008.84
2022-11-30T00:49:49.711Z,1008.84
2022-11-30T00:50:22.108Z,1008.84
2022-11-30T00:50:39.122Z,1008.94
2022-11-30T00:51:10.590Z,1008.94
2022-11-30T00:51:33.224Z,1008.84
2022-11-30T00:51:57.856Z,1008.84
2022-11-30T00:52:30.055Z,1008.84
2022-11-30T00:53:01.945Z,1008.84
2022-11-30T00:53:33.305Z,1008.74
2022-11-30T00:53:49.767Z,1008.74
2022-11-30T00:54:22.703Z,1008.74
2022-11-30T00:54:39.818Z,1008.74
2022-11-30T00:55:10.080Z,1008.74
2022-11-30T00:55:33.287Z,1008.94
2022-11-30T00:55:58.000Z,1008.94
2022-11-30T00:56:30.650Z,1008.94
2022-11-30T00:57:01.972Z,1008.84
2022-11-30T00:57:35.219Z,1008.74
2022-11-30T00:58:05.886Z,1008.74
2022-11-30T00:58:33.647Z,1008.63
2022-11-30T00:58:54.386Z,1008.63
2022-11-30T00:59:26.005Z,1008.63
2022-11-30T00:59:58.596Z,1008.63
2022-11-30T01:00:30.127Z,1008.63
2022-11-30T01:01:02.857Z,1009.04
2022-11-30T01:01:33.451Z,1008.63
2022-11-30T01:01:49.929Z,1008.63
2022-11-30T01:02:22.703Z,1008.63
2022-11-30T01:02:39.831Z,1008.84
2022-11-30T01:03:10.028Z,1008.84
2022-11-30T01:03:33.223Z,1008.63
2022-11-30T01:03:57.925Z,1008.63
2022-11-30T01:04:30.657Z,1008.63
2022-11-30T01:05:02.169Z,1008.84
2022-11-30T01:05:34.192Z,1008.63
2022-11-30T01:06:05.980Z,1008.63
2022-11-30T01:06:34.335Z,1008.84
2022-11-30T01:06:54.093Z,1008.84
2022-11-30T01:07:25.995Z,1008.84
2022-11-30T01:07:58.696Z,1008.74
2022-11-30T01:08:29.991Z,1008.74
2022-11-30T01:09:02.768Z,1008.84
2022-11-30T01:09:33.332Z,1008.84
2022-11-30T01:09:49.691Z,1008.84
2022-11-30T01:10:22.167Z,1008.84
2022-11-30T01:10:39.166Z,1008.74
2022-11-30T01:11:10.677Z,1008.74
2022-11-30T01:11:33.320Z,1008.94
2022-11-30T01:11:57.932Z,1008.94
2022-11-30T01:12:30.030Z,1008.94
2022-11-30T01:13:02.069Z,1008.74
2022-11-30T01:13:33.454Z,1009.11
2022-11-30T01:13:49.833Z,1009.11
2022-11-30T01:14:22.782Z,1009.11
2022-11-30T01:14:39.840Z,1008.94
2022-11-30T01:15:10.217Z,1008.94
2022-11-30T01:15:33.337Z,1008.84
2022-11-30T01:15:58.146Z,1008.84
2022-11-30T01:16:30.839Z,1008.84
2022-11-30T01:17:02.072Z,1008.74
2022-11-30T01:17:34.320Z,1008.84
2022-11-30T01:18:06.002Z,1008.84
2022-11-30T01:18:33.341Z,1008.84
2022-11-30T01:18:54.151Z,1008.84
2022-11-30T01:19:26.029Z,1008.84
2022-11-30T01:19:58.884Z,1008.94
2022-11-30T01:20:30.215Z,1008.94
2022-11-30T01:21:02.970Z,1008.84
2022-11-30T01:21:34.299Z,1008.84
2022-11-30T01:21:49.809Z,1008.84
2022-11-30T01:22:22.076Z,1008.84
2022-11-30T01:22:39.287Z,1008.94
2022-11-30T01:23:10.632Z,1008.94
2022-11-30T01:23:33.257Z,1009.04
2022-11-30T01:23:57.914Z,1009.04
2022-11-30T01:24:29.906Z,1009.04
2022-11-30T01:25:02.150Z,1008.94
2022-11-30T01:25:33.632Z,1008.94
2022-11-30T01:25:50.065Z,1008.94
2022-11-30T01:26:22.686Z,1008.94
2022-11-30T01:26:39.726Z,1008.94
2022-11-30T01:27:26.746Z,1008.94
2022-11-30T01:27:57.873Z,1008.74
2022-11-30T01:28:30.654Z,1008.74
2022-11-30T01:29:01.995Z,1009.04
2022-11-30T01:29:33.947Z,1008.74
2022-11-30T01:30:06.157Z,1008.74
2022-11-30T01:30:33.441Z,1008.94
2022-11-30T01:30:54.223Z,1008.94
2022-11-30T01:31:25.960Z,1008.94
2022-11-30T01:31:58.725Z,1008.84
2022-11-30T01:32:30.010Z,1008.84
2022-11-30T01:33:02.563Z,1008.63
2022-11-30T01:33:33.285Z,1008.74
2022-11-30T01:33:49.719Z,1008.74
2022-11-30T01:34:22.031Z,1008.74
2022-11-30T01:34:39.192Z,1008.94
2022-11-30T01:35:11.011Z,1008.94
2022-11-30T01:35:33.332Z,1008.74
2022-11-30T01:35:58.198Z,1008.74
2022-11-30T01:36:30.030Z,1008.74
2022-11-30T01:37:02.004Z,1008.74
2022-11-30T01:37:33.290Z,1008.94
2022-11-30T01:37:50.758Z,1008.94
2022-11-30T01:38:22.842Z,1008.94
2022-11-30T01:38:40.093Z,1008.94
2022-11-30T01:39:11.208Z,1008.94
2022-11-30T01:39:34.220Z,1008.94
2022-11-30T01:39:57.923Z,1008.94
2022-11-30T01:40:30.874Z,1008.94
2022-11-30T01:41:02.422Z,1008.84
2022-11-30T01:41:34.158Z,1008.74
2022-11-30T01:42:07.687Z,1008.74
2022-11-30T01:42:34.107Z,1008.84
2022-11-30T01:42:54.196Z,1008.84
2022-11-30T01:43:27.200Z,1008.84
2022-11-30T01:43:59.669Z,1009.04
2022-11-30T01:44:29.994Z,1009.04
2022-11-30T01:45:04.028Z,1008.94
2022-11-30T01:45:33.296Z,1009.04
2022-11-30T01:45:49.983Z,1009.04
2022-11-30T01:46:22.031Z,1009.04
2022-11-30T01:46:40.323Z,1008.94
2022-11-30T01:47:10.572Z,1008.94
2022-11-30T01:47:33.192Z,1008.84
2022-11-30T01:47:57.861Z,1008.84
2022-11-30T01:48:31.005Z,1008.84
2022-11-30T01:49:01.959Z,1008.84
2022-11-30T01:49:33.238Z,1008.74
2022-11-30T01:49:49.785Z,1008.74
2022-11-30T01:50:24.861Z,1008.74
2022-11-30T01:50:41.256Z,1008.84
2022-11-30T01:51:10.963Z,1008.84
2022-11-30T01:51:35.273Z,1008.84
2022-11-30T01:51:57.955Z,1008.84
2022-11-30T01:52:34.800Z,1008.84
2022-11-30T01:53:02.019Z,1008.84
2022-11-30T01:53:33.532Z,1008.94
2022-11-30T01:53:50.701Z,1008.94
2022-11-30T01:54:22.916Z,1008.94
2022-11-30T01:54:40.020Z,1008.84
2022-11-30T01:55:10.165Z,1008.84
2022-11-30T01:55:34.192Z,1009.04
2022-11-30T01:55:58.913Z,1009.04
2022-11-30T01:56:29.969Z,1009.04
2022-11-30T01:57:02.621Z,1009.04
2022-11-30T01:57:33.391Z,1009.31
2022-11-30T01:57:49.864Z,1009.31
2022-11-30T01:58:36.168Z,1008.94
2022-11-30T01:59:10.563Z,1008.94
2022-11-30T01:59:34.279Z,1009.11
2022-11-30T01:59:58.173Z,1009.11
2022-11-30T02:00:34.465Z,1008.74
2022-11-30T02:01:02.051Z,1008.74
2022-11-30T02:01:33.354Z,1009.31
2022-11-30T02:01:50.828Z,1009.31
2022-11-30T02:02:22.840Z,1009.31
2022-11-30T02:02:39.947Z,1008.84
2022-11-30T02:03:10.083Z,1008.84
2022-11-30T02:03:33.190Z,1009.11
2022-11-30T02:03:57.908Z,1009.11
2022-11-30T02:04:30.534Z,1009.11
2022-11-30T02:05:02.947Z,1008.84
2022-11-30T02:05:34.010Z,1009.04
2022-11-30T02:06:05.997Z,1009.04
2022-11-30T02:06:33.419Z,1008.84
2022-11-30T02:06:54.113Z,1008.84
2022-11-30T02:07:25.973Z,1008.84
2022-11-30T02:07:58.901Z,1008.94
2022-11-30T02:08:30.044Z,1008.94
2022-11-30T02:09:02.713Z,1009.04
2022-11-30T02:09:33.801Z,1008.94
2022-11-30T02:10:06.869Z,1008.94
2022-11-30T02:10:33.373Z,1009.11
2022-11-30T02:10:54.214Z,1009.11
2022-11-30T02:11:25.940Z,1009.11
2022-11-30T02:11:58.524Z,1009.31
2022-11-30T02:12:30.080Z,1009.31
2022-11-30T02:13:02.029Z,1009.04
2022-11-30T02:13:33.342Z,1008.84
2022-11-30T02:13:49.742Z,1008.84
2022-11-30T02:14:22.693Z,1008.84
2022-11-30T02:14:43.790Z,1008.94
2022-11-30T02:15:10.252Z,1008.94
2022-11-30T02:15:33.221Z,1009.04
2022-11-30T02:15:58.154Z,1009.04
2022-11-30T02:16:30.723Z,1009.04
2022-11-30T02:17:01.946Z,1009.11
2022-11-30T02:17:34.832Z,1008.84
2022-11-30T02:18:05.979Z,1008.84
2022-11-30T02:18:33.228Z,1009.04
2022-11-30T02:18:54.063Z,1009.04
2022-11-30T02:19:25.925Z,1009.04
2022-11-30T02:19:58.813Z,1009.04
2022-11-30T02:20:30.133Z,1009.04
2022-11-30T02:21:02.703Z,1008.84
2022-11-30T02:21:33.314Z,1009.04
2022-11-30T02:21:49.807Z,1009.04
2022-11-30T02:22:21.995Z,1009.04
2022-11-30T02:22:39.199Z,1008.94
2022-11-30T02:23:10.624Z,1008.94
2022-11-30T02:23:39.484Z,1008.94
2022-11-30T02:23:58.058Z,1008.94
2022-11-30T02:24:29.984Z,1008.94
2022-11-30T02:25:03.144Z,1008.84
2022-11-30T02:25:33.557Z,1008.84
2022-11-30T02:25:50.081Z,1008.84
2022-11-30T02:26:22.693Z,1008.84
2022-11-30T02:26:39.763Z,1008.84
2022-11-30T02:27:09.986Z,1008.84
2022-11-30T02:27:33.245Z,1009.04
2022-11-30T02:27:57.900Z,1009.04
2022-11-30T02:28:30.627Z,1009.04
2022-11-30T02:29:02.170Z,1008.84
2022-11-30T02:29:34.163Z,1008.94
2022-11-30T02:30:06.138Z,1008.94
2022-11-30T02:30:33.285Z,1008.94
2022-11-30T02:30:54.444Z,1008.94
2022-11-30T02:31:26.004Z,1008.94
2022-11-30T02:31:58.798Z,1008.84
2022-11-30T02:32:30.431Z,1008.84
2022-11-30T02:33:02.560Z,1008.74
2022-11-30T02:33:33.320Z,1008.74
2022-11-30T02:33:49.772Z,1008.74
2022-11-30T02:34:21.987Z,1008.74
2022-11-30T02:34:39.203Z,1008.94
2022-11-30T02:35:11.794Z,1008.94
2022-11-30T02:35:33.318Z,1008.94
2022-11-30T02:36:05.595Z,1008.94
2022-11-30T02:36:30.363Z,1008.94
2022-11-30T02:37:03.483Z,1009.04
2022-11-30T02:37:34.124Z,1008.94
2022-11-30T02:38:06.174Z,1008.94
2022-11-30T02:38:33.428Z,1008.94
2022-11-30T02:38:54.108Z,1008.94
2022-11-30T02:39:27.437Z,1008.94
2022-11-30T02:40:01.119Z,1008.84
2022-11-30T02:40:30.259Z,1008.84
2022-11-30T02:41:02.769Z,1008.94
2022-11-30T02:41:37.753Z,1008.84
2022-11-30T02:42:06.744Z,1008.84
2022-11-30T02:42:33.286Z,1008.94
2022-11-30T02:42:54.128Z,1008.94
2022-11-30T02:43:26.946Z,1008.94
2022-11-30T02:43:58.014Z,1008.84
2022-11-30T02:44:31.989Z,1008.84
2022-11-30T02:45:03.547Z,1009.04
2022-11-30T02:45:47.926Z,1008.94
2022-11-30T02:46:06.107Z,1008.94
2022-11-30T02:46:33.364Z,1009.04
2022-11-30T02:46:54.131Z,1009.04
2022-11-30T02:47:26.539Z,1009.04
2022-11-30T02:47:57.899Z,1008.84
2022-11-30T02:48:31.400Z,1008.84
2022-11-30T02:49:01.986Z,1008.94
2022-11-30T02:49:34.173Z,1008.94
2022-11-30T02:50:06.120Z,1008.94
2022-11-30T02:50:33.244Z,1009.04
2022-11-30T02:50:54.135Z,1009.04
2022-11-30T02:51:25.893Z,1009.04
2022-11-30T02:51:58.825Z,1008.94
2022-11-30T02:52:33.343Z,1008.94
2022-11-30T02:53:02.552Z,1008.94
2022-11-30T02:53:33.302Z,1008.94
2022-11-30T02:53:49.771Z,1008.94
2022-11-30T02:54:23.080Z,1008.94
2022-11-30T02:54:40.186Z,1008.63
2022-11-30T02:55:11.814Z,1008.63
2022-11-30T02:55:33.227Z,1008.94
2022-11-30T02:55:58.070Z,1008.94
2022-11-30T02:56:29.927Z,1008.94
2022-11-30T02:57:02.020Z,1008.94
2022-11-30T02:57:34.271Z,1008.94
2022-11-30T02:58:05.951Z,1008.94
2022-11-30T02:58:33.377Z,1008.94
2022-11-30T02:58:54.030Z,1008.94
2022-11-30T02:59:33.961Z,1008.84
2022-11-30T02:59:59.773Z,1008.84
2022-11-30T03:00:30.124Z,1008.84
2022-11-30T03:01:01.995Z,1008.63
2022-11-30T03:01:34.556Z,1009.04
2022-11-30T03:02:05.953Z,1009.04
2022-11-30T03:02:33.340Z,1008.84
2022-11-30T03:02:55.100Z,1008.84
2022-11-30T03:03:25.977Z,1008.84
2022-11-30T03:03:58.622Z,1008.84
2022-11-30T03:04:30.015Z,1008.84
2022-11-30T03:05:03.621Z,1008.84
2022-11-30T03:05:33.329Z,1009.04
2022-11-30T03:05:49.898Z,1009.04
2022-11-30T03:06:22.911Z,1009.04
2022-11-30T03:06:39.318Z,1008.74
2022-11-30T03:07:11.622Z,1008.74
2022-11-30T03:07:33.327Z,1008.94
2022-11-30T03:07:57.991Z,1008.94
2022-11-30T03:08:30.035Z,1008.94
2022-11-30T03:09:02.930Z,1009.11
2022-11-30T03:09:33.434Z,1008.74
2022-11-30T03:09:49.790Z,1008.74
2022-11-30T03:10:22.806Z,1008.74
2022-11-30T03:10:39.827Z,1009.04
2022-11-30T03:11:10.070Z,1009.04
2022-11-30T03:11:33.228Z,1009.04
2022-11-30T03:11:57.928Z,1009.04
2022-11-30T03:12:31.423Z,1009.04
2022-11-30T03:13:02.019Z,1008.63
2022-11-30T03:13:34.396Z,1008.94
2022-11-30T03:14:06.940Z,1008.94
2022-11-30T03:14:33.379Z,1008.94
2022-11-30T03:14:53.955Z,1008.94
2022-11-30T03:15:26.171Z,1008.94
2022-11-30T03:15:59.566Z,1009.04
2022-11-30T03:16:29.965Z,1009.04
2022-11-30T03:17:02.553Z,1009.11
2022-11-30T03:17:33.410Z,1008.74
2022-11-30T03:17:50.763Z,1008.74
2022-11-30T03:18:21.948Z,1008.74
2022-11-30T03:18:39.079Z,1008.84
2022-11-30T03:19:10.604Z,1008.84
2022-11-30T03:19:33.218Z,1008.84
2022-11-30T03:19:57.883Z,1008.84
2022-11-30T03:20:30.115Z,1008.84
2022-11-30T03:21:02.574Z,1008.84
2022-11-30T03:21:33.271Z,1008.94
2022-11-30T03:21:49.714Z,1008.94
2022-11-30T03:22:21.920Z,1008.94
2022-11-30T03:22:39.090Z,1008.84
2022-11-30T03:23:10.586Z,1008.84
2022-11-30T03:23:33.423Z,1008.84
2022-11-30T03:23:59.782Z,1008.84
2022-11-30T03:24:30.030Z,1008.84
2022-11-30T03:25:02.140Z,1009.04
2022-11-30T03:25:33.289Z,1008.94
2022-11-30T03:25:51.638Z,1008.94
2022-11-30T03:26:22.969Z,1008.94
2022-11-30T03:26:40.191Z,1008.94
2022-11-30T03:27:12.035Z,1008.94
2022-11-30T03:27:33.214Z,1008.94
2022-11-30T03:27:57.988Z,1008.94
2022-11-30T03:28:30.989Z,1008.94
2022-11-30T03:29:02.014Z,1008.84
2022-11-30T03:29:35.144Z,1008.84
2022-11-30T03:30:06.113Z,1008.84
2022-11-30T03:30:34.260Z,1008.84
2022-11-30T03:30:54.184Z,1008.84
2022-11-30T03:31:26.000Z,1008.84
2022-11-30T03:31:58.652Z,1008.84
2022-11-30T03:32:29.913Z,1008.84
2022-11-30T03:33:02.617Z,1008.74
2022-11-30T03:33:35.331Z,1008.84
2022-11-30T03:33:50.794Z,1008.84
2022-11-30T03:34:21.971Z,1008.84
2022-11-30T03:34:40.948Z,1008.84
2022-11-30T03:35:11.737Z,1008.84
2022-11-30T03:35:33.272Z,1008.74
2022-11-30T03:35:58.060Z,1008.74
2022-11-30T03:36:33.268Z,1008.63
2022-11-30T03:37:01.994Z,1008.63
2022-11-30T03:37:33.806Z,1008.84
2022-11-30T03:38:05.912Z,1008.84
2022-11-30T03:38:34.428Z,1008.84
2022-11-30T03:38:54.044Z,1008.84
2022-11-30T03:39:28.329Z,1008.84
2022-11-30T03:39:58.510Z,1009.04
2022-11-30T03:40:30.849Z,1009.04
2022-11-30T03:41:34.407Z,1009.04
2022-11-30T03:42:33.309Z,1008.74
2022-11-30T03:42:54.170Z,1008.74
2022-11-30T03:43:25.978Z,1008.74
2022-11-30T03:43:58.694Z,1008.84
2022-11-30T03:44:30.011Z,1008.84
2022-11-30T03:45:03.046Z,1008.94
2022-11-30T03:45:33.362Z,1009.04
2022-11-30T03:45:49.854Z,1009.04
2022-11-30T03:46:22.051Z,1009.04
2022-11-30T03:46:39.203Z,1008.94
2022-11-30T03:47:11.481Z,1008.94
2022-11-30T03:47:33.520Z,1008.94
2022-11-30T03:47:57.884Z,1008.94
2022-11-30T03:48:30.041Z,1008.94
2022-11-30T03:49:02.114Z,1008.84
2022-11-30T03:49:33.360Z,1008.84
2022-11-30T03:49:49.786Z,1008.84
2022-11-30T03:50:22.998Z,1008.84
2022-11-30T03:50:40.715Z,1008.94
2022-11-30T03:51:09.975Z,1008.94
2022-11-30T03:51:33.512Z,1008.84
2022-11-30T03:51:57.894Z,1008.84
2022-11-30T03:52:30.758Z,1008.84
2022-11-30T03:53:02.065Z,1009.04
2022-11-30T03:53:34.144Z,1009.04
2022-11-30T03:54:05.857Z,1009.04
2022-11-30T03:54:34.242Z,1008.94
2022-11-30T03:54:54.021Z,1008.94
2022-11-30T03:55:33.384Z,1008.74
2022-11-30T03:55:58.767Z,1008.74
2022-11-30T03:56:30.001Z,1008.74
2022-11-30T03:57:02.593Z,1009.04
2022-11-30T03:57:33.367Z,1009.04
2022-11-30T03:57:50.028Z,1009.04
2022-11-30T03:58:23.720Z,1009.04
2022-11-30T03:58:40.842Z,1008.84
2022-11-30T03:59:10.007Z,1008.84
2022-11-30T03:59:33.249Z,1008.94
2022-11-30T04:00:00.955Z,1008.94
2022-11-30T04:00:30.815Z,1008.94
2022-11-30T04:01:02.039Z,1009.11
2022-11-30T04:01:34.128Z,1009.11
2022-11-30T04:02:06.077Z,1009.11
2022-11-30T04:02:33.359Z,1008.94
2022-11-30T04:02:54.079Z,1008.94
2022-11-30T04:03:25.992Z,1008.94
2022-11-30T04:03:59.698Z,1009.04
2022-11-30T04:04:31.034Z,1009.04
2022-11-30T04:05:02.957Z,1009.04
2022-11-30T04:05:33.372Z,1008.94
2022-11-30T04:05:49.955Z,1008.94
2022-11-30T04:06:22.020Z,1008.94
2022-11-30T04:06:39.122Z,1008.94
2022-11-30T04:07:10.626Z,1008.94
2022-11-30T04:07:33.307Z,1008.94
2022-11-30T04:07:58.051Z,1008.94
2022-11-30T04:08:29.946Z,1008.94
2022-11-30T04:09:02.039Z,1009.04
2022-11-30T04:09:34.537Z,1008.84
2022-11-30T04:10:08.621Z,1008.84
2022-11-30T04:10:33.384Z,1008.84
2022-11-30T04:10:54.226Z,1008.84
2022-11-30T04:11:26.570Z,1008.84
2022-11-30T04:11:57.858Z,1009.04
2022-11-30T04:12:30.629Z,1009.04
2022-11-30T04:13:02.040Z,1009.04
2022-11-30T04:13:34.371Z,1008.94
2022-11-30T04:14:06.920Z,1008.94
2022-11-30T04:14:34.148Z,1008.94
2022-11-30T04:14:54.017Z,1008.94
2022-11-30T04:15:26.248Z,1008.94
2022-11-30T04:15:58.902Z,1009.04
2022-11-30T04:16:30.978Z,1009.04
2022-11-30T04:17:02.843Z,1008.94
2022-11-30T04:17:33.335Z,1008.94
2022-11-30T04:17:49.736Z,1008.94
2022-11-30T04:18:21.924Z,1008.94
2022-11-30T04:18:39.076Z,1008.94
2022-11-30T04:19:11.564Z,1008.94
2022-11-30T04:19:33.263Z,1009.11
2022-11-30T04:19:57.888Z,1009.11
2022-11-30T04:20:30.237Z,1009.11
2022-11-30T04:21:02.087Z,1009.04
2022-11-30T04:21:33.353Z,1008.94
2022-11-30T04:22:06.028Z,1008.94
2022-11-30T04:22:33.265Z,1009.04
2022-11-30T04:22:54.140Z,1009.04
2022-11-30T04:23:26.777Z,1009.04
2022-11-30T04:23:57.945Z,1009.04
2022-11-30T04:24:30.801Z,1009.04
2022-11-30T04:25:02.226Z,1008.94
2022-11-30T04:25:34.874Z,1008.94
2022-11-30T04:26:05.962Z,1008.94
2022-11-30T04:26:33.295Z,1009.04
2022-11-30T04:26:54.708Z,1009.04
2022-11-30T04:27:25.930Z,1009.04
2022-11-30T04:28:04.575Z,1009.11
2022-11-30T04:28:30.041Z,1009.11
2022-11-30T04:29:04.418Z,1008.94
2022-11-30T04:29:33.895Z,1009.21
2022-11-30T04:30:06.256Z,1009.21
2022-11-30T04:30:33.247Z,1009.04
2022-11-30T04:30:54.404Z,1009.04
2022-11-30T04:31:26.882Z,1009.04
2022-11-30T04:31:58.040Z,1008.94
2022-11-30T04:32:30.623Z,1008.94
2022-11-30T04:33:02.297Z,1009.11
2022-11-30T04:33:34.243Z,1009.21
2022-11-30T04:34:06.148Z,1009.21
2022-11-30T04:34:33.776Z,1009.21
2022-11-30T04:34:54.133Z,1009.21
2022-11-30T04:35:33.495Z,1008.94
2022-11-30T04:36:14.848Z,1008.94
2022-11-30T04:36:33.398Z,1009.21
2022-11-30T04:37:01.956Z,1009.21
2022-11-30T04:37:33.365Z,1008.94
2022-11-30T04:37:49.878Z,1008.94
2022-11-30T04:38:22.614Z,1008.94
2022-11-30T04:38:54.188Z,1009.11
2022-11-30T04:39:26.716Z,1009.11
2022-11-30T04:39:58.036Z,1009.21
2022-11-30T04:40:30.828Z,1009.21
2022-11-30T04:41:02.048Z,1009.04
2022-11-30T04:41:34.001Z,1009.04
2022-11-30T04:42:05.982Z,1009.04
2022-11-30T04:42:33.354Z,1009.21
2022-11-30T04:42:54.262Z,1009.21
2022-11-30T04:43:25.974Z,1009.21
2022-11-30T04:43:58.785Z,1009.04
2022-11-30T04:44:30.058Z,1009.04
2022-11-30T04:45:03.188Z,1009.04
2022-11-30T04:45:35.496Z,1009.04
2022-11-30T04:45:50.052Z,1009.04
2022-11-30T04:46:22.000Z,1009.04
2022-11-30T04:46:39.160Z,1009.11
2022-11-30T04:47:10.691Z,1009.11
2022-11-30T04:47:33.423Z,1009.11
2022-11-30T04:47:58.010Z,1009.11
2022-11-30T04:48:30.068Z,1009.11
2022-11-30T04:49:01.923Z,1009.04
2022-11-30T04:49:34.094Z,1009.04
2022-11-30T04:50:06.137Z,1009.04
2022-11-30T04:50:33.341Z,1009.31
2022-11-30T04:50:54.215Z,1009.31
2022-11-30T04:51:26.748Z,1009.31
2022-11-30T04:51:58.039Z,1009.11
2022-11-30T04:52:30.652Z,1009.11
2022-11-30T04:53:01.894Z,1009.11
2022-11-30T04:53:34.783Z,1009.04
2022-11-30T04:54:05.962Z,1009.04
2022-11-30T04:54:33.351Z,1009.21
2022-11-30T04:54:54.079Z,1009.21
2022-11-30T04:55:26.212Z,1009.21
2022-11-30T04:55:59.737Z,1009.04
2022-11-30T04:56:29.909Z,1009.04
2022-11-30T04:57:02.701Z,1009.11
2022-11-30T04:57:33.271Z,1009.11
2022-11-30T04:57:49.719Z,1009.11
2022-11-30T04:58:21.889Z,1009.11
2022-11-30T04:58:39.119Z,1009.21
2022-11-30T04:59:10.684Z,1009.21
2022-11-30T04:59:33.291Z,1009.11
2022-11-30T04:59:58.085Z,1009.11
2022-11-30T05:00:30.166Z,1009.11
2022-11-30T05:01:01.976Z,1009.11
2022-11-30T05:01:33.423Z,1009.31
2022-11-30T05:01:49.925Z,1009.31
2022-11-30T05:02:22.667Z,1009.31
2022-11-30T05:02:39.923Z,1009.11
2022-11-30T05:03:10.014Z,1009.11
2022-11-30T05:03:33.349Z,1009.21
2022-11-30T05:03:58.139Z,1009.21
2022-11-30T05:04:30.822Z,1009.21
2022-11-30T05:05:02.124Z,1009.21
2022-11-30T05:05:34.345Z,1009.11
2022-11-30T05:06:06.073Z,1009.11
2022-11-30T05:06:33.340Z,1009.21
2022-11-30T05:06:54.064Z,1009.21
2022-11-30T05:07:26.067Z,1009.21
2022-11-30T05:07:58.670Z,1009.04
2022-11-30T05:08:29.917Z,1009.04
2022-11-30T05:09:02.802Z,1009.11
2022-11-30T05:09:33.242Z,1008.94
2022-11-30T05:09:49.809Z,1008.94
2022-11-30T05:10:22.251Z,1008.94
2022-11-30T05:10:39.177Z,1009.04
2022-11-30T05:11:10.723Z,1009.04
2022-11-30T05:11:33.928Z,1009.04
2022-11-30T05:11:57.954Z,1009.04
2022-11-30T05:12:29.912Z,1009.04
2022-11-30T05:13:01.959Z,1009.21
2022-11-30T05:13:33.321Z,1009.21
2022-11-30T05:13:49.927Z,1009.21
2022-11-30T05:14:22.707Z,1009.21
2022-11-30T05:14:39.791Z,1009.04
2022-11-30T05:15:10.222Z,1009.04
2022-11-30T05:15:33.345Z,1009.11
2022-11-30T05:15:58.217Z,1009.11
2022-11-30T05:16:30.751Z,1009.11
2022-11-30T05:17:04.655Z,1009.21
2022-11-30T05:17:34.930Z,1009.21
2022-11-30T05:18:06.025Z,1009.21
2022-11-30T05:18:33.348Z,1009.21
2022-11-30T05:18:54.025Z,1009.21
2022-11-30T05:19:37.557Z,1009.31
2022-11-30T05:19:58.624Z,1009.31
2022-11-30T05:20:30.118Z,1009.31
2022-11-30T05:21:18.700Z,1009.11
2022-11-30T05:21:35.911Z,1009.11
2022-11-30T05:22:07.124Z,1009.11
2022-11-30T05:22:33.305Z,1009.31
2022-11-30T05:22:53.981Z,1009.31
2022-11-30T05:23:26.782Z,1009.31
2022-11-30T05:23:59.104Z,1009.21
2022-11-30T05:24:30.719Z,1009.21
2022-11-30T05:25:02.077Z,1009.11
2022-11-30T05:25:34.146Z,1009.31
2022-11-30T05:26:22.104Z,1009.31
2022-11-30T05:27:15.348Z,1009.21
2022-11-30T05:27:33.864Z,1009.04
2022-11-30T05:27:57.969Z,1009.04
2022-11-30T05:28:29.909Z,1009.04
2022-11-30T05:29:01.936Z,1009.11
2022-11-30T05:29:33.261Z,1009.11
2022-11-30T05:29:49.822Z,1009.11
2022-11-30T05:30:22.932Z,1009.11
2022-11-30T05:30:39.892Z,1009.21
2022-11-30T05:31:09.935Z,1009.21
2022-11-30T05:31:33.448Z,1009.11
2022-11-30T05:31:58.043Z,1009.11
2022-11-30T05:32:30.731Z,1009.11
2022-11-30T05:33:18.027Z,1009.11
2022-11-30T05:33:50.942Z,1009.11
2022-11-30T05:34:21.964Z,1009.11
2022-11-30T05:34:50.063Z,1008.94
2022-11-30T05:35:26.088Z,1008.94
2022-11-30T05:35:58.031Z,1009.31
2022-11-30T05:36:29.914Z,1009.31
2022-11-30T05:37:01.918Z,1008.94
2022-11-30T05:37:33.290Z,1009.21
2022-11-30T05:38:22.571Z,1009.21
2022-11-30T05:38:39.720Z,1009.21
2022-11-30T05:39:09.931Z,1009.21
2022-11-30T05:39:33.753Z,1009.11
2022-11-30T05:39:57.918Z,1009.11
2022-11-30T05:40:34.973Z,1009.21
2022-11-30T05:41:01.877Z,1009.21
2022-11-30T05:41:33.287Z,1009.11
2022-11-30T05:42:33.254Z,1009.21
2022-11-30T05:42:54.864Z,1009.21
2022-11-30T05:43:26.039Z,1009.21
2022-11-30T05:43:58.841Z,1009.31
2022-11-30T05:44:30.094Z,1009.31
2022-11-30T05:45:18.953Z,1009.31
2022-11-30T05:46:25.372Z,1009.21
2022-11-30T05:47:31.568Z,1009.21
2022-11-30T05:47:34.982Z,1009.41